Terminal Aerodrome Forecast
Issued by NWS

Home | Current Version | Previous Version | Text Only | Print | Product List | Glossary On
Versions: 1 2 3 4 5 6 7 8 9 10 11 12 13 14 15 16 17 18 19 20 21 22 23 24 25 26 27 28 29 30 31 32 33 34 35 36 37 38
445
FTUS42 KCAE 282056 AAE
TAFDNL
TAF AMD
KDNL 282056Z 2821/2918 20008KT P6SM BKN035
      TEMPO 2821/2822 3SM TSRA BKN030CB
     FM290300 19004KT P6SM SCT060 BKN120
     FM291400 23005KT P6SM SCT250=

USA.gov is the U.S. government's official web portal to all federal, state and local government web resources and services.